Time;durP1;ratioP1;P1;durP2;ratioP2;P2;SDS_P1;SDS_P2;PMS_P1;PMS_P2;Temp;Humidity;BMP_temperature;BMP_pressure;BME280_temperature;BME280_humidity;BME280_pressure;Samples;Min_cycle;Max_cycle;Signal;HPM_P1;HPM_P2
2022/11/21 00:01:27;;;;;;;21.80;15.38;;;1.60;99.90;;;;;;5143476;27;20099;-72
2022/11/21 00:03:52;;;;;;;;;;;2.80;99.90;;;;;;5142080;27;20173;-73
2022/11/21 00:06:19;;;;;;;20.83;15.10;;;1.60;99.90;;;;;;5141758;27;20260;-71
2022/11/21 00:08:46;;;;;;;24.13;16.45;;;2.50;99.90;;;;;;5141295;27;20084;-71
2022/11/21 00:11:12;;;;;;;20.83;15.35;;;1.60;99.90;;;;;;5122735;27;20062;-71
2022/11/21 00:13:38;;;;;;;23.60;15.75;;;1.60;99.90;;;;;;5141166;27;20115;-71
2022/11/21 00:16:06;;;;;;;20.65;15.15;;;1.70;99.90;;;;;;5144089;27;20047;-71
2022/11/21 00:18:33;;;;;;;23.05;16.33;;;1.70;99.90;;;;;;5144182;27;20081;-71
2022/11/21 00:21:07;;;;;;;23.20;15.25;;;1.70;99.90;;;;;;5127535;27;20111;-70
2022/11/21 00:23:33;;;;;;;21.60;15.32;;;1.70;99.90;;;;;;5146486;27;20121;-72
2022/11/21 00:26:07;;;;;;;22.30;15.25;;;3.00;99.90;;;;;;5126821;27;20053;-71
2022/11/21 00:28:33;;;;;;;21.00;14.75;;;1.60;99.90;;;;;;5130531;27;20039;-71
2022/11/21 00:30:59;;;;;;;23.52;15.65;;;1.60;99.90;;;;;;5145865;27;20049;-71
2022/11/21 00:33:24;;;;;;;24.30;16.05;;;1.60;99.90;;;;;;5147193;27;20122;-71
2022/11/21 00:35:50;;;;;;;21.35;16.00;;;2.80;99.90;;;;;;5144416;27;20390;-72
2022/11/21 00:38:16;;;;;;;20.73;14.25;;;1.60;99.90;;;;;;5130418;27;20039;-72
2022/11/21 00:40:43;;;;;;;23.02;15.48;;;1.60;99.90;;;;;;5141811;27;20585;-71
2022/11/21 00:43:09;;;;;;;20.45;14.57;;;1.60;99.90;;;;;;5130893;27;20917;-71
2022/11/21 00:45:36;;;;;;;21.73;15.02;;;1.60;99.90;;;;;;5142250;27;20046;-72
2022/11/21 00:48:02;;;;;;;21.25;15.23;;;1.60;99.90;;;;;;5143717;27;20129;-72
2022/11/21 00:50:27;;;;;;;23.92;15.68;;;1.80;99.90;;;;;;5141860;27;20046;-72
2022/11/21 00:52:57;;;;;;;21.92;14.23;;;1.60;99.90;;;;;;5129526;27;21753;-71
2022/11/21 00:55:23;;;;;;;21.17;15.32;;;1.60;99.90;;;;;;5140843;27;20070;-73
2022/11/21 00:57:49;;;;;;;21.75;15.82;;;1.50;99.90;;;;;;5132065;27;20034;-73
2022/11/21 01:00:18;;;;;;;20.05;14.73;;;2.40;99.90;;;;;;5148254;27;20114;-74
2022/11/21 01:02:43;;;;;;;21.48;14.23;;;1.50;99.90;;;;;;5111923;27;20058;-73
2022/11/21 01:05:09;;;;;;;19.23;14.40;;;1.50;99.90;;;;;;5149670;27;20170;-73
2022/11/21 01:07:35;;;;;;;21.83;15.02;;;1.50;99.90;;;;;;5149088;27;20490;-71
2022/11/21 01:10:01;;;;;;;24.23;15.70;;;1.50;99.90;;;;;;5129454;27;20952;-73
2022/11/21 01:12:27;;;;;;;22.85;15.48;;;1.50;99.90;;;;;;5145150;27;20039;-73
2022/11/21 01:14:53;;;;;;;20.13;14.45;;;2.50;99.90;;;;;;5129080;27;20189;-73
2022/11/21 01:17:18;;;;;;;26.25;16.90;;;1.30;99.90;;;;;;5115405;27;20118;-73
2022/11/21 01:19:44;;;;;;;20.10;15.38;;;2.60;99.90;;;;;;5132357;27;20125;-73
2022/11/21 01:22:09;;;;;;;22.27;16.00;;;1.30;99.90;;;;;;5139826;27;20070;-74
2022/11/21 01:24:35;;;;;;;20.48;14.43;;;1.20;99.90;;;;;;5128542;27;20486;-72
2022/11/21 01:27:01;;;;;;;23.98;16.45;;;1.20;99.90;;;;;;5113500;27;20039;-72
2022/11/21 01:29:27;;;;;;;24.75;15.77;;;1.20;99.90;;;;;;5141239;27;20042;-72
2022/11/21 01:31:52;;;;;;;21.17;14.82;;;1.20;99.90;;;;;;5125506;27;20066;-71
2022/11/21 01:34:18;;;;;;;25.05;15.35;;;1.10;99.90;;;;;;5131922;27;20039;-72
2022/11/21 01:36:44;;;;;;;22.73;15.27;;;2.20;99.90;;;;;;5144919;27;20439;-71
2022/11/21 01:39:10;;;;;;;27.77;15.57;;;1.10;99.90;;;;;;5142853;27;20043;-71
2022/11/21 01:41:39;;;;;;;22.58;15.23;;;1.10;99.90;;;;;;5151901;27;20090;-72
2022/11/21 01:44:16;;;;;;;21.67;15.07;;;1.00;99.90;;;;;;5128374;27;20051;-71
2022/11/21 01:46:42;;;;;;;23.33;14.40;;;-0.20;99.90;;;;;;5149005;27;20129;-71
2022/11/21 01:49:28;;;;;;;20.67;15.10;;;1.10;99.90;;;;;;5148912;27;20105;-72
2022/11/21 01:52:05;;;;;;;21.90;14.45;;;2.20;99.90;;;;;;5149838;27;20034;-72
2022/11/21 01:54:37;;;;;;;26.95;15.32;;;0.90;99.90;;;;;;5142184;27;20047;-72
2022/11/21 01:57:14;;;;;;;21.73;15.18;;;0.80;99.90;;;;;;5106393;27;20070;-72
2022/11/21 01:59:53;;;;;;;19.48;14.55;;;0.80;99.90;;;;;;5125024;27;20043;-73
2022/11/21 02:02:23;;;;;;;18.63;14.90;;;0.70;99.90;;;;;;5127822;27;20042;-71
2022/11/21 02:04:50;;;;;;;22.17;15.45;;;0.70;99.90;;;;;;5130298;27;20027;-72
2022/11/21 02:07:18;;;;;;;24.58;14.75;;;0.70;99.90;;;;;;5145246;27;20067;-73
2022/11/21 02:09:49;;;;;;;21.08;14.23;;;0.70;99.90;;;;;;5127941;27;20054;-73
2022/11/21 02:12:34;;;;;;;23.40;15.23;;;0.60;99.90;;;;;;5126153;27;20035;-73
2022/11/21 02:15:00;;;;;;;21.27;14.60;;;0.70;99.90;;;;;;5144530;27;20046;-72
2022/11/21 02:17:28;;;;;;;21.80;14.48;;;0.70;99.90;;;;;;5148515;27;20039;-72
2022/11/21 02:19:59;;;;;;;19.75;14.27;;;0.70;99.90;;;;;;5144357;27;20084;-72
2022/11/21 02:22:48;;;;;;;21.77;14.95;;;0.60;99.90;;;;;;5142253;27;20043;-72
2022/11/21 02:25:20;;;;;;;22.50;15.38;;;0.60;99.90;;;;;;5147176;27;20030;-72
2022/11/21 02:27:48;;;;;;;23.05;14.25;;;0.60;99.90;;;;;;5121985;27;20057;-72
2022/11/21 02:30:15;;;;;;;20.65;14.27;;;1.10;99.90;;;;;;5117290;27;20595;-73
2022/11/21 02:32:45;;;;;;;20.73;14.60;;;0.50;99.90;;;;;;5109809;27;21356;-72
2022/11/21 02:35:13;;;;;;;21.55;15.25;;;0.50;99.90;;;;;;5124684;27;20082;-72
2022/11/21 02:37:39;;;;;;;18.90;14.25;;;0.50;99.90;;;;;;5144761;27;20085;-72
2022/11/21 02:40:17;;;;;;;20.10;13.77;;;0.50;99.90;;;;;;5111543;27;20054;-73
2022/11/21 02:43:05;;;;;;;20.17;14.45;;;0.50;99.90;;;;;;5139339;27;20143;-72
2022/11/21 02:45:39;;;;;;;22.77;15.43;;;0.50;99.90;;;;;;5122697;27;20073;-72
2022/11/21 02:48:05;;;;;;;22.33;14.23;;;0.50;99.90;;;;;;5141199;27;20069;-73
2022/11/21 02:50:37;;;;;;;22.60;15.07;;;0.40;99.90;;;;;;5119068;27;20031;-72
2022/11/21 02:53:05;;;;;;;19.67;13.98;;;0.40;99.90;;;;;;5128492;27;20254;-72
2022/11/21 02:55:31;;;;;;;21.35;14.10;;;0.40;99.90;;;;;;5140009;27;20039;-72
2022/11/21 02:57:57;;;;;;;22.45;15.13;;;0.30;99.90;;;;;;5143615;27;20061;-73
2022/11/21 03:00:23;;;;;;;22.92;14.00;;;0.30;99.90;;;;;;5129390;27;20031;-73
2022/11/21 03:02:49;;;;;;;20.85;13.80;;;0.30;99.90;;;;;;5147354;27;20051;-73
2022/11/21 03:05:17;;;;;;;20.75;14.20;;;0.20;99.90;;;;;;5141977;27;20035;-72
2022/11/21 03:07:43;;;;;;;19.65;13.77;;;0.30;99.90;;;;;;5147848;27;20047;-72
2022/11/21 03:10:09;;;;;;;19.70;13.65;;;0.30;99.90;;;;;;5149520;27;20604;-73
2022/11/21 03:12:36;;;;;;;19.33;13.52;;;0.20;99.90;;;;;;5130525;27;20118;-72
2022/11/21 03:15:03;;;;;;;21.33;14.30;;;0.20;99.90;;;;;;5144452;27;20053;-72
2022/11/21 03:17:28;;;;;;;18.13;13.05;;;0.20;99.90;;;;;;5129585;27;20027;-73
2022/11/21 03:19:54;;;;;;;17.90;12.90;;;0.20;99.90;;;;;;5142046;27;20053;-73
2022/11/21 03:22:19;;;;;;;21.33;13.10;;;0.10;99.90;;;;;;5138090;27;20038;-72
2022/11/21 03:24:45;;;;;;;20.92;13.25;;;0.00;99.90;;;;;;5112975;27;20082;-72
2022/11/21 03:27:11;;;;;;;19.17;12.75;;;0.20;99.90;;;;;;5112039;27;20049;-72
2022/11/21 03:29:36;;;;;;;19.40;13.48;;;0.10;99.90;;;;;;5145766;27;20054;-73
2022/11/21 03:32:02;;;;;;;19.45;12.90;;;0.10;99.90;;;;;;5111956;27;20027;-72
2022/11/21 03:34:28;;;;;;;21.77;13.98;;;0.00;99.90;;;;;;5128334;27;20031;-73
2022/11/21 03:36:54;;;;;;;19.40;14.13;;;0.00;99.90;;;;;;5142134;27;20054;-72
2022/11/21 03:39:19;;;;;;;20.25;14.32;;;0.00;99.90;;;;;;5148058;27;20120;-72
2022/11/21 03:41:45;;;;;;;20.63;13.88;;;1.30;99.90;;;;;;5117979;27;20171;-73
2022/11/21 03:44:11;;;;;;;22.30;13.90;;;0.00;99.90;;;;;;5144026;27;20122;-73
2022/11/21 03:46:39;;;;;;;23.20;15.18;;;-0.10;99.90;;;;;;5145636;27;20500;-73
2022/11/21 03:49:06;;;;;;;21.83;14.98;;;-0.10;99.90;;;;;;5143541;27;20114;-73
2022/11/21 03:51:32;;;;;;;20.67;13.70;;;-0.20;99.90;;;;;;5131363;27;20081;-72
2022/11/21 03:53:58;;;;;;;19.60;13.75;;;-0.20;99.90;;;;;;5149284;27;20031;-72
2022/11/21 03:56:24;;;;;;;19.63;14.23;;;-0.10;99.90;;;;;;5156517;27;20043;-73
2022/11/21 03:58:50;;;;;;;20.65;13.77;;;-0.10;99.90;;;;;;5150249;27;20023;-73
2022/11/21 04:01:17;;;;;;;21.60;14.93;;;-0.10;99.90;;;;;;5128327;27;20103;-73
2022/11/21 04:03:43;;;;;;;19.50;13.90;;;-0.20;99.90;;;;;;5116151;27;20038;-72
2022/11/21 04:06:16;;;;;;;20.70;14.02;;;-0.10;99.90;;;;;;5133811;27;20125;-72
2022/11/21 04:08:42;;;;;;;24.73;14.55;;;-0.20;99.90;;;;;;5142048;27;20509;-73
2022/11/21 04:11:08;;;;;;;23.30;15.13;;;-0.20;99.90;;;;;;5140381;27;22068;-72
2022/11/21 04:13:34;;;;;;;19.38;13.32;;;1.30;99.90;;;;;;5142423;27;20047;-72
2022/11/21 04:16:00;;;;;;;22.30;14.93;;;-0.20;99.90;;;;;;5129486;27;20133;-72
2022/11/21 04:18:25;;;;;;;19.65;14.13;;;-0.20;99.90;;;;;;5131133;27;20075;-72
2022/11/21 04:20:56;;;;;;;23.30;14.75;;;-0.30;99.90;;;;;;5126193;27;20037;-73
2022/11/21 04:23:22;;;;;;;21.83;14.10;;;-0.20;99.90;;;;;;5144476;27;20520;-72
2022/11/21 04:25:48;;;;;;;21.70;15.50;;;-0.20;99.90;;;;;;5113605;27;20035;-73
2022/11/21 04:28:13;;;;;;;24.35;16.23;;;1.40;99.90;;;;;;5132274;27;20046;-72
2022/11/21 04:30:39;;;;;;;19.98;13.65;;;-0.20;99.90;;;;;;5148336;27;20039;-72
2022/11/21 04:33:05;;;;;;;19.10;13.65;;;-0.20;99.90;;;;;;5112071;27;20389;-73
2022/11/21 04:35:31;;;;;;;20.02;13.90;;;-0.20;99.90;;;;;;5130471;27;20042;-72
2022/11/21 04:37:56;;;;;;;19.95;14.23;;;-0.30;99.90;;;;;;5146388;27;20130;-73
2022/11/21 04:40:22;;;;;;;20.38;13.95;;;-0.30;99.90;;;;;;5141181;27;20375;-72
2022/11/21 04:42:48;;;;;;;21.25;14.02;;;1.20;99.90;;;;;;5132769;27;20041;-72
2022/11/21 04:45:15;;;;;;;18.95;13.02;;;-0.30;99.90;;;;;;5129653;27;20167;-72
2022/11/21 04:47:44;;;;;;;19.42;14.13;;;-0.30;99.90;;;;;;5142991;27;20493;-72
2022/11/21 04:50:11;;;;;;;21.90;15.00;;;-0.40;99.90;;;;;;5132588;27;20042;-72
2022/11/21 04:52:37;;;;;;;20.13;13.80;;;-0.40;99.90;;;;;;5131279;27;20150;-72
2022/11/21 04:55:03;;;;;;;21.05;15.07;;;-0.50;99.90;;;;;;5129697;27;20515;-71
2022/11/21 04:57:31;;;;;;;24.92;16.23;;;-0.50;99.90;;;;;;5133853;27;20068;-72
2022/11/21 04:59:57;;;;;;;24.48;14.98;;;-0.50;99.90;;;;;;5138894;27;20038;-72
2022/11/21 05:02:24;;;;;;;22.88;15.15;;;-0.50;99.90;;;;;;5112658;27;20641;-72
2022/11/21 05:04:49;;;;;;;23.17;15.85;;;-0.50;99.90;;;;;;5141220;27;20102;-72
2022/11/21 05:07:16;;;;;;;25.15;16.25;;;-0.50;99.90;;;;;;5140071;27;20031;-71
2022/11/21 05:09:42;;;;;;;23.13;15.77;;;-0.40;99.90;;;;;;5132592;27;20047;-72
2022/11/21 05:14:54;;;;;;;27.95;17.10;;;-0.50;99.90;;;;;;5141087;27;20051;-72
2022/11/21 05:17:20;;;;;;;26.15;17.20;;;-0.50;99.90;;;;;;5142220;27;20498;-72
2022/11/21 05:19:45;;;;;;;25.17;16.60;;;-0.50;99.90;;;;;;5130093;27;20066;-71
2022/11/21 05:22:11;;;;;;;26.25;17.48;;;-0.50;99.90;;;;;;5140919;27;20042;-72
2022/11/21 05:24:37;;;;;;;24.33;16.55;;;-1.90;99.90;;;;;;5144218;27;20038;-72
2022/11/21 05:27:03;;;;;;;27.95;16.83;;;-0.50;99.90;;;;;;5147236;27;20110;-72
2022/11/21 05:29:28;;;;;;;23.92;16.38;;;-0.60;99.90;;;;;;5144555;27;20050;-72
2022/11/21 05:31:54;;;;;;;26.17;17.02;;;0.10;99.90;;;;;;5142345;27;20470;-72
2022/11/21 05:34:20;;;;;;;25.20;17.00;;;-0.70;99.90;;;;;;5148104;27;20050;-72
2022/11/21 05:36:45;;;;;;;29.67;17.00;;;0.30;99.90;;;;;;5130921;27;20399;-72
2022/11/21 05:39:11;;;;;;;26.02;16.90;;;-0.70;99.90;;;;;;5145991;27;20047;-73
2022/11/21 05:41:37;;;;;;;24.30;16.95;;;-0.70;99.90;;;;;;5117634;27;20031;-71
2022/11/21 05:44:02;;;;;;;26.90;18.30;;;-0.70;99.90;;;;;;5136575;27;20129;-71
2022/11/21 05:46:28;;;;;;;23.58;16.05;;;0.80;99.90;;;;;;5121663;27;20036;-70
2022/11/21 05:48:54;;;;;;;25.77;17.58;;;-0.10;99.90;;;;;;5144566;27;20038;-73
2022/11/21 05:51:20;;;;;;;26.23;17.08;;;-1.00;99.90;;;;;;5128136;27;20062;-73
2022/11/21 05:53:47;;;;;;;25.80;17.38;;;0.30;99.90;;;;;;5125602;27;20134;-73
2022/11/21 05:56:15;;;;;;;26.60;17.65;;;-0.60;99.90;;;;;;5143000;27;20031;-72
2022/11/21 05:58:41;;;;;;;27.40;16.90;;;-0.60;99.90;;;;;;5147156;27;20034;-73
2022/11/21 06:01:10;;;;;;;24.75;16.67;;;1.20;99.90;;;;;;5146190;27;20053;-73
2022/11/21 06:03:38;;;;;;;26.75;17.60;;;-0.50;99.90;;;;;;5138753;27;20502;-72
2022/11/21 06:06:06;;;;;;;26.73;16.60;;;-0.30;99.90;;;;;;5125274;27;20050;-71
2022/11/21 06:08:43;;;;;;;27.45;16.67;;;-0.40;99.90;;;;;;5149581;27;20050;-71
2022/11/21 06:11:11;;;;;;;23.67;16.95;;;-1.30;99.90;;;;;;5108881;27;20035;-71
2022/11/21 06:13:38;;;;;;;24.20;16.27;;;-0.50;99.90;;;;;;5147384;27;20092;-71
2022/11/21 06:16:05;;;;;;;25.83;17.30;;;0.00;99.90;;;;;;5120563;27;20499;-71
2022/11/21 06:18:34;;;;;;;26.17;17.38;;;-0.50;99.90;;;;;;5148931;27;20042;-71
2022/11/21 06:21:02;;;;;;;27.25;18.50;;;0.40;99.90;;;;;;5125457;27;20051;-72
2022/11/21 06:23:27;;;;;;;28.05;17.33;;;-0.50;99.90;;;;;;5124152;27;20035;-71
2022/11/21 06:25:58;;;;;;;28.63;18.17;;;-0.50;99.90;;;;;;5144471;27;20038;-71
2022/11/21 06:28:32;;;;;;;21.92;16.30;;;0.70;99.90;;;;;;5144600;27;20034;-71
2022/11/21 06:31:14;;;;;;;23.55;16.05;;;-0.50;99.90;;;;;;5143292;27;20047;-72
2022/11/21 06:33:41;;;;;;;24.17;16.30;;;-0.50;99.90;;;;;;5147908;27;20030;-71
2022/11/21 06:36:10;;;;;;;25.02;16.25;;;-0.50;99.90;;;;;;5126931;27;20166;-72
2022/11/21 06:38:36;;;;;;;24.45;16.02;;;-0.60;99.90;;;;;;5142801;27;20091;-72
2022/11/21 06:41:19;;;;;;;22.13;14.63;;;1.10;99.90;;;;;;5128978;27;20045;-71
2022/11/21 06:43:45;;;;;;;24.65;15.00;;;-0.60;99.90;;;;;;5149217;27;20055;-71
2022/11/21 06:46:12;;;;;;;24.23;16.13;;;-0.60;99.90;;;;;;5145073;27;20051;-75
2022/11/21 06:48:38;;;;;;;24.33;16.27;;;-0.70;99.90;;;;;;5109209;27;20497;-71
2022/11/21 06:51:05;;;;;;;23.02;16.08;;;-0.70;99.90;;;;;;5128264;27;20114;-72
2022/11/21 06:53:32;;;;;;;28.70;15.77;;;-0.80;99.90;;;;;;4427232;27;10000727;-72
2022/11/21 06:55:59;;;;;;;24.10;15.30;;;-0.60;99.90;;;;;;5138331;27;20051;-72
2022/11/21 06:58:25;;;;;;;23.75;16.63;;;-0.70;99.90;;;;;;5126531;27;20091;-71
2022/11/21 07:00:50;;;;;;;25.90;16.67;;;-0.70;99.90;;;;;;5127201;27;20046;-71
2022/11/21 07:03:17;;;;;;;22.50;14.80;;;-0.70;99.90;;;;;;5143131;27;20100;-72
2022/11/21 07:05:43;;;;;;;25.95;15.73;;;-0.70;99.90;;;;;;5120445;27;20390;-71
2022/11/21 07:08:08;;;;;;;22.80;15.05;;;0.40;99.90;;;;;;5142154;27;20034;-71
2022/11/21 07:10:34;;;;;;;26.33;16.73;;;-0.70;99.90;;;;;;5145901;27;20573;-72
2022/11/21 07:15:46;;;;;;;24.55;15.75;;;-0.80;99.90;;;;;;5115537;27;20043;-71
2022/11/21 07:18:12;;;;;;;23.63;15.00;;;-0.70;99.90;;;;;;5145637;27;20386;-72
2022/11/21 07:20:38;;;;;;;22.92;16.63;;;-0.80;99.90;;;;;;5146906;27;20031;-72
2022/11/21 07:23:04;;;;;;;21.67;15.32;;;-0.80;99.90;;;;;;5140796;27;20046;-72
2022/11/21 07:25:30;;;;;;;24.17;16.27;;;-0.80;99.90;;;;;;5148560;27;20031;-72
2022/11/21 07:27:59;;;;;;;26.13;17.48;;;-0.80;99.90;;;;;;5127780;27;20091;-72
2022/11/21 07:30:25;;;;;;;29.35;18.27;;;-0.80;99.90;;;;;;5128550;27;20115;-72
2022/11/21 07:32:55;;;;;;;31.58;19.45;;;-0.80;99.90;;;;;;5122852;27;20502;-71
2022/11/21 07:35:21;;;;;;;27.08;16.95;;;-0.80;99.90;;;;;;5111702;28;20395;-72
2022/11/21 07:37:46;;;;;;;30.13;17.48;;;-0.80;99.90;;;;;;5144967;27;20050;-71
2022/11/21 07:40:12;;;;;;;28.33;18.30;;;-0.80;99.90;;;;;;5138518;27;20103;-71
2022/11/21 07:42:38;;;;;;;24.50;16.42;;;-0.80;99.90;;;;;;5140945;27;20079;-72
2022/11/21 07:45:04;;;;;;;28.00;17.13;;;-0.80;99.90;;;;;;5108607;27;20042;-72
2022/11/21 07:47:30;;;;;;;27.95;17.92;;;-0.90;99.90;;;;;;5141332;27;20042;-72
2022/11/21 07:49:55;;;;;;;31.50;18.75;;;-0.90;99.90;;;;;;5139065;27;20043;-71
2022/11/21 07:52:21;;;;;;;31.85;18.48;;;-1.00;99.90;;;;;;5143964;27;20035;-72
2022/11/21 07:54:46;;;;;;;28.92;18.25;;;-1.00;99.90;;;;;;5144804;27;20121;-72
2022/11/21 07:57:12;;;;;;;28.95;18.13;;;-1.10;99.90;;;;;;5144795;27;20099;-72
2022/11/21 07:59:38;;;;;;;28.50;17.52;;;-1.50;99.90;;;;;;5121253;27;20050;-72
2022/11/21 08:02:03;;;;;;;32.47;18.42;;;-1.10;99.90;;;;;;5123215;27;20047;-72
2022/11/21 08:04:29;;;;;;;28.15;17.42;;;-1.20;99.90;;;;;;5123200;27;20090;-72
2022/11/21 08:06:58;;;;;;;27.10;17.40;;;-1.00;99.90;;;;;;5121066;27;20051;-72
2022/11/21 08:09:27;;;;;;;28.50;18.55;;;-1.10;99.90;;;;;;5123707;27;20433;-72
2022/11/21 08:11:53;;;;;;;28.38;18.17;;;-1.00;99.90;;;;;;5120699;27;20034;-72
2022/11/21 08:14:19;;;;;;;27.70;19.25;;;-1.00;99.90;;;;;;5146529;27;20106;-72
2022/11/21 08:16:44;;;;;;;28.15;18.55;;;-1.00;99.90;;;;;;5142745;27;20109;-72
2022/11/21 08:19:10;;;;;;;112.35;58.53;;;-0.90;99.90;;;;;;5139980;27;20042;-72
2022/11/21 08:21:35;;;;;;;32.88;20.42;;;-0.90;99.90;;;;;;5144397;27;20517;-72
2022/11/21 08:24:01;;;;;;;33.03;20.35;;;-0.80;99.90;;;;;;5138307;27;20362;-72
2022/11/21 08:26:27;;;;;;;29.83;19.25;;;-0.20;99.90;;;;;;5123682;27;20039;-72
2022/11/21 08:28:52;;;;;;;27.45;18.40;;;-0.80;99.90;;;;;;5143703;27;20359;-72
2022/11/21 08:31:18;;;;;;;29.17;19.00;;;-0.70;99.90;;;;;;5140553;27;20088;-72
2022/11/21 08:33:44;;;;;;;35.15;20.42;;;0.00;99.90;;;;;;5104042;27;20031;-72
2022/11/21 08:36:09;;;;;;;29.25;18.42;;;-0.60;99.90;;;;;;5124100;27;20043;-72
2022/11/21 08:38:35;;;;;;;26.25;18.00;;;-0.50;99.90;;;;;;5130929;27;20078;-72
2022/11/21 08:43:45;;;;;;;28.30;18.95;;;0.30;99.90;;;;;;5150688;27;20054;-72
2022/11/21 08:46:10;;;;;;;29.33;18.40;;;-0.30;99.90;;;;;;5129481;27;20531;-72
2022/11/21 08:48:36;;;;;;;27.08;18.23;;;0.80;99.90;;;;;;5151432;27;20386;-71
2022/11/21 08:51:02;;;;;;;26.70;18.63;;;-0.30;99.90;;;;;;5150014;27;20438;-72
2022/11/21 08:53:27;;;;;;;26.77;17.33;;;-0.20;99.90;;;;;;5123253;27;20035;-72
2022/11/21 08:55:53;;;;;;;28.42;18.05;;;-0.10;99.90;;;;;;5150575;27;20092;-72
2022/11/21 08:58:19;;;;;;;29.98;19.17;;;-0.20;99.90;;;;;;5148687;27;20433;-71
2022/11/21 09:00:45;;;;;;;29.20;19.27;;;-0.10;99.90;;;;;;5150812;27;20107;-72
2022/11/21 09:03:10;;;;;;;29.60;18.67;;;-0.10;99.90;;;;;;5115121;27;20039;-72
2022/11/21 09:05:36;;;;;;;28.60;18.95;;;0.00;99.90;;;;;;5134769;27;20054;-71
2022/11/21 09:08:01;;;;;;;29.63;20.63;;;0.00;99.90;;;;;;5121751;27;20074;-74
2022/11/21 09:10:30;;;;;;;27.38;18.83;;;0.00;99.90;;;;;;5116381;27;20038;-73
2022/11/21 09:12:59;;;;;;;29.50;17.75;;;0.10;99.90;;;;;;5151517;27;20410;-73
2022/11/21 09:18:12;;;;;;;28.50;18.55;;;0.10;99.90;;;;;;5122803;27;20087;-73
2022/11/21 09:20:40;;;;;;;26.23;17.92;;;0.10;99.90;;;;;;5122325;27;20050;-73
2022/11/21 09:23:11;;;;;;;26.00;17.55;;;0.10;99.90;;;;;;5148693;27;20490;-73
2022/11/21 09:25:37;;;;;;;26.17;18.30;;;0.20;99.90;;;;;;5105772;27;20319;-73
2022/11/21 09:28:05;;;;;;;29.85;19.63;;;0.20;99.90;;;;;;5125064;27;20046;-74
2022/11/21 09:30:30;;;;;;;28.60;18.98;;;0.20;99.90;;;;;;5110534;27;20104;-73
2022/11/21 09:33:05;;;;;;;28.60;19.40;;;0.20;99.90;;;;;;5107914;27;20039;-73
2022/11/21 09:35:31;;;;;;;29.70;19.33;;;0.20;99.90;;;;;;5143943;27;20047;-73
2022/11/21 09:37:57;;;;;;;28.38;18.58;;;0.30;99.90;;;;;;5125050;27;20047;-74
2022/11/21 09:40:24;;;;;;;27.45;19.48;;;0.30;99.90;;;;;;5146513;27;20062;-74
2022/11/21 09:43:05;;;;;;;28.65;18.52;;;0.30;99.90;;;;;;5121597;27;20043;-74
2022/11/21 09:45:45;;;;;;;29.30;19.92;;;0.30;99.90;;;;;;5130924;27;20034;-74
2022/11/21 09:48:22;;;;;;;26.20;17.98;;;0.40;99.90;;;;;;5109111;27;20446;-73
2022/11/21 09:50:52;;;;;;;28.33;18.52;;;0.40;99.90;;;;;;5141890;27;20385;-74
2022/11/21 09:53:29;;;;;;;30.08;17.92;;;0.40;99.90;;;;;;5121836;27;20582;-73
2022/11/21 09:56:03;;;;;;;26.60;18.00;;;0.40;99.90;;;;;;5147483;27;20285;-73
2022/11/21 09:58:44;;;;;;;26.00;17.15;;;0.50;99.90;;;;;;5141242;27;20126;-74
2022/11/21 10:01:14;;;;;;;26.35;17.98;;;0.50;99.90;;;;;;5121915;27;20482;-74
2022/11/21 10:03:45;;;;;;;27.55;18.38;;;0.50;99.90;;;;;;5141744;27;20126;-74
2022/11/21 10:06:25;;;;;;;25.88;17.85;;;0.50;99.90;;;;;;5115472;27;20046;-74
2022/11/21 10:09:12;;;;;;;30.17;17.42;;;0.50;99.90;;;;;;5124083;27;20038;-74
2022/11/21 10:15:11;;;;;;;31.35;20.83;;;0.60;99.90;;;;;;5143810;27;20486;-73
2022/11/21 10:18:05;;;;;;;26.92;18.60;;;0.60;99.90;;;;;;5127174;27;20049;-73
2022/11/21 10:20:57;;;;;;;28.58;18.73;;;0.60;99.90;;;;;;5074215;27;20559;-73
2022/11/21 10:23:52;;;;;;;29.35;19.65;;;0.70;99.90;;;;;;5125624;27;20034;-73
2022/11/21 10:26:41;;;;;;;26.58;17.63;;;0.70;99.90;;;;;;5122436;27;20047;-74
2022/11/21 10:29:13;;;;;;;28.73;18.65;;;0.70;99.90;;;;;;5114527;27;20494;-74
2022/11/21 10:31:40;;;;;;;24.02;17.40;;;0.70;99.90;;;;;;5141310;27;20039;-73
2022/11/21 10:34:14;;;;;;;27.55;18.65;;;0.70;99.90;;;;;;5112490;27;20073;-73
2022/11/21 10:36:43;;;;;;;26.23;18.45;;;0.70;99.90;;;;;;5122010;27;20039;-74
2022/11/21 10:39:34;;;;;;;30.98;19.17;;;0.80;99.90;;;;;;5143526;27;20062;-73
2022/11/21 10:42:23;;;;;;;27.70;18.48;;;0.80;99.90;;;;;;5099963;27;20027;-73
2022/11/21 10:47:36;;;;;;;22.90;16.20;;;1.00;99.90;;;;;;5124675;27;20042;-74
2022/11/21 10:50:25;;;;;;;26.08;18.08;;;0.90;99.90;;;;;;5124057;27;20035;-73
2022/11/21 10:54:31;;;;;;;24.00;16.00;;;0.90;99.90;;;;;;5105804;27;20054;-73
2022/11/21 10:56:01;;;;;;;25.15;16.25;;;1.00;99.90;;;;;;5147713;27;20445;-74
2022/11/21 10:58:42;;;;;;;30.65;18.90;;;1.00;99.90;;;;;;5104358;27;20060;-72
2022/11/21 11:01:19;;;;;;;22.48;16.08;;;1.10;99.90;;;;;;5119922;27;20159;-73
2022/11/21 11:03:44;;;;;;;21.50;15.23;;;1.20;99.90;;;;;;5139106;27;20118;-73
2022/11/21 11:06:10;;;;;;;22.73;16.27;;;1.10;99.90;;;;;;5129256;27;20118;-73
2022/11/21 11:08:51;;;;;;;23.95;15.82;;;1.20;99.90;;;;;;5140532;27;20031;-74
2022/11/21 11:11:20;;;;;;;22.80;16.38;;;1.20;99.90;;;;;;5135239;27;20042;-73
2022/11/21 11:14:02;;;;;;;22.48;15.73;;;1.30;99.90;;;;;;5121406;27;20104;-73
2022/11/21 11:16:30;;;;;;;25.00;16.75;;;1.30;99.90;;;;;;5124372;27;20035;-73
2022/11/21 11:19:03;;;;;;;21.80;14.57;;;1.40;99.90;;;;;;5120946;27;20039;-72
2022/11/21 11:21:45;;;;;;;21.33;14.88;;;1.40;99.90;;;;;;5120263;27;20038;-72
2022/11/21 11:24:11;;;;;;;22.30;14.48;;;1.40;99.90;;;;;;5121545;27;20051;-72
2022/11/21 11:26:46;;;;;;;21.17;15.00;;;2.80;99.90;;;;;;5123685;27;20046;-72
2022/11/21 11:29:20;;;;;;;22.13;14.60;;;1.60;99.90;;;;;;5122807;27;20167;-72
2022/11/21 11:31:58;;;;;;;;;;;1.50;99.90;;;;;;5141924;27;20039;-73
2022/11/21 11:34:26;;;;;;;20.45;14.55;;;1.50;99.90;;;;;;5142509;27;20013;-72
2022/11/21 11:37:24;;;;;;;19.92;14.27;;;1.60;99.90;;;;;;5126205;27;20047;-72
2022/11/21 11:40:06;;;;;;;21.73;13.07;;;1.60;99.90;;;;;;5099964;27;20093;-72
2022/11/21 11:48:44;;;;;;;17.77;12.70;;;1.70;99.90;;;;;;5127425;27;20121;-72
2022/11/21 11:51:30;;;;;;;20.02;14.20;;;1.70;99.90;;;;;;5124767;27;20100;-73
2022/11/21 11:54:04;;;;;;;19.58;12.80;;;1.90;99.90;;;;;;5139901;27;20042;-73
2022/11/21 11:56:35;;;;;;;19.05;13.88;;;1.80;99.90;;;;;;5122959;28;20487;-71
2022/11/21 11:59:20;;;;;;;18.02;13.30;;;1.80;99.90;;;;;;5143914;27;20030;-72
2022/11/21 12:02:10;;;;;;;19.10;12.18;;;1.90;99.90;;;;;;5121030;27;20047;-71
2022/11/21 12:04:44;;;;;;;18.23;13.18;;;1.90;99.90;;;;;;5142327;27;20274;-72
2022/11/21 12:07:22;;;;;;;16.20;12.52;;;1.90;99.90;;;;;;5103785;27;20038;-72
2022/11/21 12:12:05;;;;;;;16.98;12.77;;;2.00;99.90;;;;;;5141207;27;20457;-71
2022/11/21 12:13:23;;;;;;;17.83;13.32;;;2.00;99.90;;;;;;5112380;27;21977;-72
2022/11/21 12:15:52;;;;;;;17.73;12.43;;;2.00;99.90;;;;;;5147446;27;20046;-71
2022/11/21 12:18:18;;;;;;;16.73;11.68;;;2.10;99.90;;;;;;5147729;27;20601;-72
2022/11/21 12:21:02;;;;;;;15.38;11.02;;;2.10;99.90;;;;;;5106923;27;20162;-71
2022/11/21 12:23:43;;;;;;;16.20;11.88;;;2.10;99.90;;;;;;5128050;27;20133;-72
2022/11/21 12:26:53;;;;;;;17.13;12.50;;;2.10;99.90;;;;;;5117942;27;20161;-72
2022/11/21 12:29:40;;;;;;;16.50;11.60;;;2.20;99.90;;;;;;5130837;27;20517;-72
2022/11/21 12:32:19;;;;;;;16.10;11.05;;;2.20;99.90;;;;;;5125792;27;20070;-73
2022/11/21 12:35:22;;;;;;;17.52;11.38;;;2.20;99.90;;;;;;5111783;27;20034;-72
2022/11/21 12:38:03;;;;;;;16.40;12.18;;;2.20;99.90;;;;;;5129889;27;20049;-71
2022/11/21 12:40:56;;;;;;;15.80;11.60;;;2.20;99.90;;;;;;5142516;27;20043;-71
2022/11/21 12:43:46;;;;;;;14.02;10.60;;;2.30;99.90;;;;;;5140022;27;20114;-72
2022/11/21 12:46:51;;;;;;;14.40;11.13;;;2.30;99.90;;;;;;5141592;27;20038;-71
2022/11/21 12:55:38;;;;;;;14.85;11.00;;;2.40;99.90;;;;;;5123583;27;20047;-72
2022/11/21 12:58:29;;;;;;;16.15;11.77;;;2.40;99.90;;;;;;5125601;27;20541;-72
2022/11/21 13:01:32;;;;;;;14.38;11.60;;;2.50;99.90;;;;;;5107091;27;20039;-72
2022/11/21 13:04:12;;;;;;;15.52;11.15;;;2.50;99.90;;;;;;5142398;27;20474;-71
2022/11/21 13:06:41;;;;;;;14.73;11.30;;;2.40;99.90;;;;;;5148892;27;20402;-74
2022/11/21 13:09:13;;;;;;;17.75;13.13;;;2.50;99.90;;;;;;5105397;27;20027;-72
2022/11/21 13:11:59;;;;;;;18.70;13.38;;;2.50;99.90;;;;;;5149373;27;20030;-72
2022/11/21 13:14:30;;;;;;;17.02;12.93;;;2.50;99.90;;;;;;5125053;27;20035;-72
2022/11/21 13:17:14;;;;;;;18.65;13.02;;;4.00;99.90;;;;;;5125078;27;20090;-72
2022/11/21 13:19:49;;;;;;;18.52;13.32;;;2.60;99.90;;;;;;5142845;27;20053;-74